Time;durP1;ratioP1;P1;durP2;ratioP2;P2;SDS_P1;SDS_P2;PMS_P1;PMS_P2;Temp;Humidity;BMP_temperature;BMP_pressure;BME280_temperature;BME280_humidity;BME280_pressure;Samples;Min_cycle;Max_cycle;Signal;HPM_P1;HPM_P2
2023/03/14 09:34:25;;;;;;;2.20;1.05;;;6.30;99.90;;;;;;5108277;27;20317;-63
2023/03/14 09:36:51;;;;;;;5.70;1.38;;;6.10;99.90;;;;;;5109575;28;20098;-64
2023/03/14 09:39:16;;;;;;;6.85;1.50;;;6.20;99.90;;;;;;5108963;28;20433;-63
2023/03/14 09:41:48;;;;;;;3.70;1.00;;;6.30;99.90;;;;;;5108007;28;20537;-64
2023/03/14 09:44:14;;;;;;;4.13;1.00;;;6.50;99.90;;;;;;5108928;28;20020;-64
2023/03/14 09:46:42;;;;;;;5.47;1.17;;;6.70;99.90;;;;;;5109235;28;20421;-64
2023/03/14 09:49:18;;;;;;;3.25;0.90;;;6.90;99.90;;;;;;5108399;28;20019;-63
2023/03/14 09:51:48;;;;;;;1.60;0.77;;;7.10;99.90;;;;;;5108544;28;20447;-64
2023/03/14 09:54:35;;;;;;;4.00;1.05;;;7.20;99.90;;;;;;5108195;28;20039;-63
2023/03/14 09:57:02;;;;;;;2.55;1.15;;;7.30;99.90;;;;;;5109109;28;20028;-64
2023/03/14 09:59:29;;;;;;;2.45;0.85;;;7.40;99.90;;;;;;5108743;28;20020;-65
2023/03/14 10:01:59;;;;;;;1.50;0.68;;;7.50;99.90;;;;;;5108028;28;20100;-64
2023/03/14 10:04:25;;;;;;;3.20;0.67;;;7.50;99.90;;;;;;5108452;28;20561;-65
2023/03/14 10:06:51;;;;;;;1.17;0.63;;;7.50;99.90;;;;;;5108840;28;20028;-65
2023/03/14 10:09:25;;;;;;;2.95;0.90;;;7.50;99.90;;;;;;5106579;28;20498;-65
2023/03/14 10:12:00;;;;;;;4.10;0.90;;;7.50;99.90;;;;;;5107320;28;20020;-65
2023/03/14 10:14:35;;;;;;;5.30;1.02;;;7.50;99.90;;;;;;5108344;28;20036;-65
2023/03/14 10:17:06;;;;;;;3.75;1.30;;;7.50;99.90;;;;;;5107822;28;20016;-65
2023/03/14 10:19:32;;;;;;;5.82;1.13;;;7.40;99.90;;;;;;5108160;28;20024;-66
2023/03/14 10:22:01;;;;;;;4.07;1.13;;;7.40;99.90;;;;;;5106360;28;20020;-64
2023/03/14 10:24:29;;;;;;;6.88;1.20;;;7.40;99.90;;;;;;5106419;28;20081;-64
2023/03/14 10:27:17;;;;;;;4.20;0.90;;;7.40;99.90;;;;;;5106789;28;20034;-64
2023/03/14 10:29:58;;;;;;;8.40;1.30;;;7.20;99.90;;;;;;5105723;28;20086;-63
2023/03/14 10:32:33;;;;;;;6.85;1.40;;;7.00;99.90;;;;;;5105686;28;20044;-64
2023/03/14 10:35:07;;;;;;;4.57;1.13;;;6.80;99.90;;;;;;5106623;28;20048;-64
2023/03/14 10:37:33;;;;;;;7.43;1.60;;;6.70;99.90;;;;;;5106020;28;20480;-64
2023/03/14 10:40:05;;;;;;;7.22;1.30;;;6.70;99.90;;;;;;5104771;28;20027;-63
2023/03/14 10:42:34;;;;;;;8.25;2.35;;;6.80;99.90;;;;;;5104523;28;20084;-64
2023/03/14 10:45:25;;;;;;;9.30;2.05;;;7.00;99.90;;;;;;5095527;28;20118;-65
2023/03/14 10:47:51;;;;;;;6.75;1.63;;;7.20;99.90;;;;;;5093073;28;20035;-63
2023/03/14 10:50:31;;;;;;;9.98;1.75;;;7.40;99.90;;;;;;5092204;28;20077;-63
2023/03/14 10:53:05;;;;;;;10.07;1.98;;;7.50;99.90;;;;;;5091788;28;20067;-63
2023/03/14 10:55:41;;;;;;;12.05;2.20;;;7.10;99.90;;;;;;5092829;28;20376;-66
2023/03/14 10:58:30;;;;;;;8.40;1.73;;;6.20;99.90;;;;;;5092083;28;20024;-64
2023/03/14 17:44:11;;;;;;;2.95;1.40;;;5.20;79.10;;;;;;5088347;28;20665;-62
2023/03/14 17:46:37;;;;;;;3.88;1.45;;;5.10;81.50;;;;;;5085719;28;20025;-65
2023/03/14 17:49:02;;;;;;;8.25;1.98;;;5.10;84.00;;;;;;5074344;28;20498;-63
2023/03/14 17:51:28;;;;;;;9.00;2.00;;;5.10;86.50;;;;;;5088552;28;20103;-63
2023/03/14 17:53:54;;;;;;;7.50;1.98;;;5.10;84.00;;;;;;5086869;28;20473;-62
2023/03/14 17:56:19;;;;;;;6.25;1.58;;;5.10;83.70;;;;;;5087571;28;20020;-64
2023/03/14 17:58:45;;;;;;;7.50;1.98;;;5.10;84.40;;;;;;5087171;28;20460;-62
2023/03/14 18:01:16;;;;;;;5.80;1.70;;;5.20;84.80;;;;;;5085698;28;20532;-64
2023/03/14 18:03:44;;;;;;;5.95;1.50;;;5.20;82.80;;;;;;5086445;28;20059;-62
2023/03/14 18:06:10;;;;;;;9.35;2.30;;;5.20;83.90;;;;;;5087064;28;20085;-62
2023/03/14 18:08:37;;;;;;;5.47;1.73;;;5.10;85.30;;;;;;5085843;28;20016;-63
2023/03/14 18:11:05;;;;;;;4.18;1.42;;;5.10;83.90;;;;;;5088907;28;20032;-62
2023/03/14 18:13:30;;;;;;;7.18;1.98;;;5.10;85.40;;;;;;5085952;28;20441;-62
2023/03/14 18:15:56;;;;;;;7.35;2.42;;;5.00;86.30;;;;;;5085585;28;20055;-64
2023/03/14 18:18:22;;;;;;;8.30;2.33;;;4.90;86.70;;;;;;5085451;28;20529;-62
2023/03/14 18:20:49;;;;;;;5.00;1.90;;;4.90;87.80;;;;;;5085599;28;20052;-63
2023/03/14 18:23:16;;;;;;;6.15;2.35;;;4.80;88.50;;;;;;5086578;28;20038;-64
2023/03/14 18:25:42;;;;;;;8.38;1.77;;;4.80;89.50;;;;;;5065536;28;20063;-64
2023/03/14 18:28:08;;;;;;;4.03;1.52;;;4.70;90.40;;;;;;5065063;28;20045;-61
2023/03/14 18:30:34;;;;;;;3.25;1.65;;;4.70;90.80;;;;;;5080031;28;20020;-63
2023/03/14 18:32:59;;;;;;;4.93;2.25;;;4.60;91.30;;;;;;5085706;28;20035;-62
2023/03/14 18:35:25;;;;;;;5.22;2.38;;;4.60;92.30;;;;;;5084443;28;20016;-62
2023/03/14 18:37:51;;;;;;;2.95;1.83;;;4.60;93.10;;;;;;5090856;28;20019;-62
2023/03/14 18:40:18;;;;;;;6.47;2.00;;;4.50;94.20;;;;;;5082786;28;20025;-62
2023/03/14 18:42:44;;;;;;;7.95;2.08;;;4.50;93.60;;;;;;5073068;28;20390;-62
2023/03/14 18:45:10;;;;;;;6.60;2.33;;;4.60;94.10;;;;;;5085173;28;20233;-62
2023/03/14 18:47:35;;;;;;;7.40;2.55;;;4.60;94.10;;;;;;5105296;28;20055;-62
2023/03/14 18:50:07;;;;;;;8.27;3.25;;;4.70;94.50;;;;;;5106319;28;20032;-64
2023/03/14 18:52:32;;;;;;;;;;;4.80;94.40;;;;;;5106797;28;20550;-62
2023/03/14 18:54:58;;;;;;;8.23;2.20;;;4.80;94.90;;;;;;5095173;28;19912;-62
2023/03/14 18:57:25;;;;;;;5.38;2.47;;;4.80;94.90;;;;;;5074679;28;20028;-62
2023/03/14 18:59:55;;;;;;;5.50;2.03;;;4.80;95.70;;;;;;5091586;28;20020;-62
2023/03/14 19:02:22;;;;;;;6.70;2.47;;;4.80;96.20;;;;;;5104075;28;20567;-63
2023/03/14 19:04:48;;;;;;;5.47;1.98;;;4.80;96.80;;;;;;5091536;28;20024;-63
2023/03/14 19:07:14;;;;;;;5.10;1.98;;;4.80;97.00;;;;;;5091802;28;20016;-63
2023/03/14 19:09:39;;;;;;;4.60;1.88;;;4.80;97.00;;;;;;5091654;28;20032;-63
2023/03/14 19:12:05;;;;;;;8.80;3.53;;;4.80;97.40;;;;;;5073195;28;20073;-62
2023/03/14 19:14:31;;;;;;;10.32;3.40;;;4.80;98.00;;;;;;5091886;28;20031;-62
2023/03/14 19:16:56;;;;;;;8.38;3.25;;;4.80;98.50;;;;;;5088032;28;20028;-63
2023/03/14 19:19:22;;;;;;;7.63;2.50;;;4.80;99.00;;;;;;5112035;28;20027;-62
2023/03/14 19:21:47;;;;;;;6.20;2.58;;;4.70;99.90;;;;;;5112225;28;20055;-62
2023/03/14 19:24:18;;;;;;;6.82;2.40;;;4.70;99.90;;;;;;5110904;28;20422;-62
2023/03/14 19:26:43;;;;;;;6.22;2.00;;;4.60;99.90;;;;;;5111689;28;20023;-62
2023/03/14 19:29:10;;;;;;;5.50;1.65;;;4.60;99.90;;;;;;5110169;28;20122;-63
2023/03/14 19:31:36;;;;;;;5.50;1.77;;;4.50;99.90;;;;;;5101531;28;20440;-62
2023/03/14 19:34:02;;;;;;;7.28;3.10;;;4.40;99.90;;;;;;5091957;28;20100;-62
2023/03/14 19:36:29;;;;;;;7.72;2.75;;;4.30;99.90;;;;;;5090888;28;20097;-62
2023/03/14 19:38:55;;;;;;;5.20;2.20;;;4.20;99.90;;;;;;5090347;28;20639;-62
2023/03/14 19:41:23;;;;;;;9.70;2.70;;;4.20;99.90;;;;;;5091338;28;20112;-62
2023/03/14 19:43:49;;;;;;;9.00;2.97;;;4.10;99.90;;;;;;5097632;28;20089;-61
2023/03/14 19:46:15;;;;;;;7.05;2.78;;;4.00;99.90;;;;;;5109912;28;20051;-62
2023/03/14 19:48:41;;;;;;;8.18;3.00;;;4.00;99.90;;;;;;5105285;28;20488;-61
2023/03/14 19:51:08;;;;;;;10.50;2.63;;;3.90;99.90;;;;;;5093248;28;20354;-61
2023/03/14 19:53:34;;;;;;;8.25;2.40;;;3.80;99.90;;;;;;5093794;28;20393;-65
2023/03/14 19:56:00;;;;;;;6.35;1.83;;;3.70;99.90;;;;;;5096028;28;20016;-62
2023/03/14 19:58:25;;;;;;;7.32;1.92;;;3.70;99.90;;;;;;5073761;28;20378;-61
2023/03/14 20:00:51;;;;;;;4.10;1.55;;;3.60;99.90;;;;;;5073077;28;20028;-61
2023/03/14 20:03:17;;;;;;;2.70;1.20;;;3.50;99.90;;;;;;5074526;28;20035;-61
2023/03/14 20:05:43;;;;;;;5.43;1.70;;;3.50;99.90;;;;;;5091614;28;20035;-62
2023/03/14 20:08:10;;;;;;;5.35;1.88;;;3.40;99.90;;;;;;5091934;28;20120;-62
2023/03/14 20:10:36;;;;;;;4.80;1.60;;;3.30;99.90;;;;;;5092459;28;20028;-61
2023/03/14 20:13:02;;;;;;;3.33;1.73;;;3.30;99.90;;;;;;5092216;28;20012;-62
2023/03/14 20:15:27;;;;;;;5.85;2.58;;;3.30;99.90;;;;;;5057025;28;20040;-61
2023/03/14 20:17:53;;;;;;;4.75;2.30;;;3.20;99.90;;;;;;5074339;28;20201;-61
2023/03/14 20:20:19;;;;;;;8.07;2.70;;;3.20;99.90;;;;;;5091483;28;20019;-62
2023/03/14 20:22:46;;;;;;;5.93;2.80;;;3.20;99.90;;;;;;5092523;28;20365;-62
2023/03/14 20:25:17;;;;;;;7.50;3.03;;;3.10;99.90;;;;;;5078575;28;20519;-61
2023/03/14 20:27:44;;;;;;;5.95;2.88;;;3.10;99.90;;;;;;5071214;28;20047;-61
2023/03/14 20:30:12;;;;;;;4.82;2.63;;;3.00;99.90;;;;;;5071877;28;20051;-62
2023/03/14 20:32:39;;;;;;;5.40;2.30;;;3.00;99.90;;;;;;5071899;28;20032;-61
2023/03/14 20:35:06;;;;;;;6.45;2.17;;;3.00;99.90;;;;;;5070808;28;20017;-62
2023/03/14 20:37:32;;;;;;;7.32;2.50;;;3.00;99.90;;;;;;5072171;28;20055;-60
2023/03/14 20:39:57;;;;;;;5.85;2.25;;;3.00;99.90;;;;;;5071301;28;20635;-62
2023/03/14 20:42:25;;;;;;;5.40;2.58;;;3.00;99.90;;;;;;5053098;28;20057;-61
2023/03/14 20:44:54;;;;;;;5.47;2.40;;;3.00;99.90;;;;;;5071535;28;20020;-62
2023/03/14 20:47:20;;;;;;;6.40;2.08;;;3.00;99.90;;;;;;5071538;28;20017;-62
2023/03/14 20:49:45;;;;;;;9.68;2.72;;;3.00;99.90;;;;;;5086728;28;20401;-62
2023/03/14 20:52:11;;;;;;;7.40;3.08;;;3.00;99.90;;;;;;5071411;28;20065;-62
2023/03/14 20:54:37;;;;;;;8.10;3.10;;;3.00;99.90;;;;;;5070354;28;20082;-62
2023/03/14 20:57:03;;;;;;;5.32;3.13;;;3.10;99.90;;;;;;5076317;28;20016;-63
2023/03/14 20:59:29;;;;;;;8.27;3.05;;;3.20;99.90;;;;;;5092377;28;20396;-62
2023/03/14 21:01:56;;;;;;;7.43;2.42;;;3.40;99.90;;;;;;5091557;28;20024;-62
2023/03/14 21:04:24;;;;;;;7.72;2.55;;;3.50;99.90;;;;;;5091339;28;20024;-62
2023/03/14 21:06:53;;;;;;;8.63;2.75;;;3.60;99.90;;;;;;5092545;28;20020;-60
2023/03/14 21:09:23;;;;;;;11.63;2.83;;;3.70;99.90;;;;;;5091880;28;20742;-63
2023/03/14 21:11:49;;;;;;;6.93;2.15;;;3.70;99.90;;;;;;5092519;28;20027;-62
2023/03/14 21:14:17;;;;;;;9.10;2.47;;;3.70;99.90;;;;;;5092083;28;20384;-62
